Time;durP1;ratioP1;P1;durP2;ratioP2;P2;SDS_P1;SDS_P2;PMS_P1;PMS_P2;Temp;Humidity;BMP_temperature;BMP_pressure;BME280_temperature;BME280_humidity;BME280_pressure;Samples;Min_cycle;Max_cycle;Signal;HPM_P1;HPM_P2
2021/08/25 00:01:13;;;;;;;5.73;3.67;;;11.10;99.90;;;;;;5011516;28;20669;-79
2021/08/25 00:03:38;;;;;;;4.40;2.53;;;11.10;99.90;;;;;;5011650;28;20511;-80
2021/08/25 00:06:04;;;;;;;3.73;2.57;;;11.10;99.90;;;;;;5010322;28;20418;-80
2021/08/25 00:08:30;;;;;;;5.10;2.57;;;11.00;99.90;;;;;;5011292;28;20427;-80
2021/08/25 00:10:56;;;;;;;4.23;3.20;;;11.00;99.90;;;;;;5011496;28;20699;-79
2021/08/25 00:13:21;;;;;;;4.57;3.10;;;10.90;99.90;;;;;;5011320;28;20198;-80
2021/08/25 00:15:47;;;;;;;4.57;2.60;;;10.90;99.90;;;;;;5011726;28;20206;-80
2021/08/25 00:18:14;;;;;;;4.83;2.80;;;10.90;99.90;;;;;;5011058;28;20612;-79
2021/08/25 00:20:40;;;;;;;3.67;3.30;;;10.90;99.90;;;;;;5028446;28;20175;-79
2021/08/25 00:23:07;;;;;;;3.20;2.90;;;10.90;99.90;;;;;;5014943;28;20897;-79
2021/08/25 00:25:33;;;;;;;5.57;3.00;;;10.90;99.90;;;;;;5015129;28;20448;-80
2021/08/25 00:28:00;;;;;;;3.77;2.37;;;10.80;99.90;;;;;;5014342;28;20418;-80
2021/08/25 00:30:26;;;;;;;4.73;2.40;;;10.80;99.90;;;;;;5009718;28;20457;-77
2021/08/25 00:32:52;;;;;;;5.73;2.70;;;10.80;99.90;;;;;;5010406;28;21072;-78
2021/08/25 00:35:18;;;;;;;3.30;2.70;;;10.80;99.90;;;;;;5013931;28;20269;-80
2021/08/25 00:37:44;;;;;;;2.70;2.50;;;10.80;99.90;;;;;;5030558;28;20659;-78
2021/08/25 00:40:10;;;;;;;3.40;2.30;;;10.70;99.90;;;;;;5015140;28;20435;-78
2021/08/25 00:42:36;;;;;;;3.23;2.60;;;10.70;99.90;;;;;;5009999;28;20506;-78
2021/08/25 00:45:07;;;;;;;3.63;2.83;;;10.70;99.90;;;;;;5012135;28;20443;-78
2021/08/25 00:47:34;;;;;;;3.30;2.23;;;10.60;99.90;;;;;;5026508;28;20265;-78
2021/08/25 00:50:00;;;;;;;2.50;2.30;;;10.60;99.90;;;;;;5011497;28;20457;-78
2021/08/25 00:52:26;;;;;;;2.57;2.37;;;10.50;99.90;;;;;;5014854;28;20921;-78
2021/08/25 00:54:52;;;;;;;4.60;2.60;;;10.50;99.90;;;;;;5014588;28;20201;-78
2021/08/25 00:57:18;;;;;;;2.80;2.60;;;10.50;99.90;;;;;;5014594;28;20659;-78
2021/08/25 00:59:44;;;;;;;2.67;2.47;;;10.50;99.90;;;;;;5015344;28;20417;-79
2021/08/25 01:02:20;;;;;;;3.23;2.30;;;10.40;99.90;;;;;;5015169;28;20203;-78
2021/08/25 01:04:53;;;;;;;5.23;2.40;;;10.40;99.90;;;;;;5015217;28;20196;-78
2021/08/25 01:07:22;;;;;;;2.90;2.70;;;10.40;99.90;;;;;;5012987;28;20434;-80
2021/08/25 01:09:51;;;;;;;7.40;3.10;;;10.30;99.90;;;;;;5014983;28;20445;-78
2021/08/25 01:12:22;;;;;;;2.70;2.10;;;10.30;99.90;;;;;;5014872;28;20429;-78
2021/08/25 01:14:48;;;;;;;3.30;2.50;;;10.20;99.90;;;;;;5014707;28;20445;-78
2021/08/25 01:17:19;;;;;;;2.47;2.20;;;10.20;99.90;;;;;;5014914;28;20460;-78
2021/08/25 01:19:55;;;;;;;3.77;2.70;;;10.10;99.90;;;;;;5014469;28;20409;-78
2021/08/25 01:22:21;;;;;;;3.00;2.50;;;10.10;99.90;;;;;;5013567;28;20544;-78
2021/08/25 01:24:55;;;;;;;2.80;2.43;;;10.10;99.90;;;;;;5013139;28;20440;-78
2021/08/25 01:27:24;;;;;;;3.73;2.50;;;10.10;99.90;;;;;;5012887;28;20453;-78
2021/08/25 01:29:51;;;;;;;4.17;2.70;;;10.10;99.90;;;;;;5014225;28;20441;-78
2021/08/25 01:32:17;;;;;;;2.43;2.33;;;10.10;99.90;;;;;;5013204;28;20441;-78
2021/08/25 01:34:57;;;;;;;4.23;2.87;;;10.10;99.90;;;;;;5014627;28;20425;-78
2021/08/25 01:37:24;;;;;;;2.90;2.17;;;10.10;99.90;;;;;;5014421;28;20706;-79
2021/08/25 01:39:51;;;;;;;3.07;2.80;;;10.10;99.90;;;;;;5012890;28;20492;-78
2021/08/25 01:42:18;;;;;;;2.90;2.20;;;10.10;99.90;;;;;;5012883;28;20884;-78
2021/08/25 01:44:45;;;;;;;2.70;2.50;;;10.00;99.90;;;;;;5014525;28;20476;-78
2021/08/25 01:47:12;;;;;;;2.87;2.60;;;9.80;99.90;;;;;;5014400;28;20418;-78
2021/08/25 01:49:38;;;;;;;4.20;2.53;;;9.80;99.90;;;;;;4996188;28;20456;-77
2021/08/25 01:52:04;;;;;;;2.90;2.50;;;9.80;99.90;;;;;;5014067;28;20712;-78
2021/08/25 01:54:33;;;;;;;3.03;2.30;;;9.90;99.90;;;;;;5013820;28;20618;-78
2021/08/25 01:56:59;;;;;;;5.03;2.80;;;10.00;99.90;;;;;;5013988;28;20477;-78
2021/08/25 01:59:24;;;;;;;2.53;2.33;;;10.00;99.90;;;;;;5013279;28;20433;-78
2021/08/25 02:01:50;;;;;;;3.83;2.70;;;10.00;99.90;;;;;;5013729;28;20187;-78
2021/08/25 02:04:16;;;;;;;2.63;2.03;;;10.00;99.90;;;;;;5013118;28;20194;-78
2021/08/25 02:06:41;;;;;;;2.90;2.30;;;10.00;99.90;;;;;;5012893;28;20191;-78
2021/08/25 02:09:07;;;;;;;2.27;2.07;;;9.90;99.90;;;;;;5010549;28;20236;-77
2021/08/25 02:11:33;;;;;;;2.77;2.23;;;9.90;99.90;;;;;;5013035;28;20183;-77
2021/08/25 02:13:59;;;;;;;2.77;2.57;;;9.90;99.90;;;;;;5013470;28;20191;-77
2021/08/25 02:16:25;;;;;;;3.37;2.40;;;9.90;99.90;;;;;;5014215;28;20412;-75
2021/08/25 02:18:50;;;;;;;3.43;2.13;;;9.90;99.90;;;;;;5010552;28;20174;-75
2021/08/25 02:21:16;;;;;;;2.40;2.20;;;9.90;99.90;;;;;;5013453;28;20175;-76
2021/08/25 02:23:42;;;;;;;2.60;2.43;;;9.80;99.90;;;;;;5011595;28;20181;-75
2021/08/25 02:26:16;;;;;;;2.80;2.60;;;9.80;99.90;;;;;;5012048;28;20433;-75
2021/08/25 02:28:51;;;;;;;2.40;2.20;;;9.70;99.90;;;;;;5012706;28;20167;-75
2021/08/25 02:31:17;;;;;;;3.57;2.10;;;9.70;99.90;;;;;;5012791;28;20467;-75
2021/08/25 02:33:43;;;;;;;2.23;2.03;;;9.70;99.90;;;;;;5011887;28;20477;-75
2021/08/25 02:36:10;;;;;;;1.93;1.80;;;9.70;99.90;;;;;;5012110;28;20438;-75
2021/08/25 02:38:37;;;;;;;3.03;2.73;;;9.70;99.90;;;;;;5012824;28;20476;-75
2021/08/25 02:41:05;;;;;;;2.70;2.50;;;9.70;99.90;;;;;;5011752;28;20432;-75
2021/08/25 02:43:32;;;;;;;2.33;2.10;;;9.70;99.90;;;;;;5012008;28;20913;-78
2021/08/25 02:45:57;;;;;;;3.33;3.03;;;9.60;99.90;;;;;;5010842;28;20465;-78
2021/08/25 02:48:23;;;;;;;2.57;2.40;;;9.60;99.90;;;;;;5012661;28;20476;-78
2021/08/25 02:50:49;;;;;;;2.87;2.67;;;9.60;99.90;;;;;;5011538;28;20245;-78
2021/08/25 02:53:17;;;;;;;2.53;2.20;;;9.50;99.90;;;;;;5012790;28;20175;-78
2021/08/25 02:55:43;;;;;;;2.97;2.77;;;9.50;99.90;;;;;;5011720;28;20178;-78
2021/08/25 02:58:09;;;;;;;3.53;2.30;;;9.40;99.90;;;;;;5013073;28;20910;-78
2021/08/25 03:00:35;;;;;;;2.60;2.30;;;9.40;99.90;;;;;;5011156;28;20499;-78
2021/08/25 03:03:00;;;;;;;2.37;2.17;;;9.40;99.90;;;;;;5012339;28;20961;-78
2021/08/25 03:05:30;;;;;;;2.47;2.27;;;9.50;99.90;;;;;;5012911;28;20185;-77
2021/08/25 03:07:56;;;;;;;2.63;2.43;;;9.50;99.90;;;;;;5010855;28;20233;-78
2021/08/25 03:10:22;;;;;;;2.43;2.07;;;9.50;99.90;;;;;;5012380;28;20480;-78
2021/08/25 03:12:48;;;;;;;2.33;2.13;;;9.40;99.90;;;;;;5012089;28;20505;-78
2021/08/25 03:15:14;;;;;;;2.80;2.60;;;9.50;99.90;;;;;;5011398;28;20448;-78
2021/08/25 03:17:40;;;;;;;3.63;2.30;;;9.50;99.90;;;;;;5011852;28;20461;-78
2021/08/25 03:20:12;;;;;;;2.57;2.47;;;9.50;99.90;;;;;;5011830;28;20421;-78
2021/08/25 03:22:39;;;;;;;2.80;2.60;;;9.50;99.90;;;;;;5010828;28;20170;-78
2021/08/25 03:25:07;;;;;;;3.27;2.73;;;9.50;99.90;;;;;;5010453;28;20461;-78
2021/08/25 03:27:33;;;;;;;2.20;2.10;;;9.50;99.90;;;;;;5012099;28;20799;-78
2021/08/25 03:29:59;;;;;;;6.60;3.43;;;9.50;99.90;;;;;;5010314;28;20448;-78
2021/08/25 03:32:25;;;;;;;4.10;3.00;;;9.50;99.90;;;;;;5012140;28;20764;-78
2021/08/25 03:34:50;;;;;;;2.43;2.33;;;9.50;99.90;;;;;;5009900;28;20197;-78
2021/08/25 03:37:17;;;;;;;3.30;3.00;;;9.50;99.90;;;;;;5009444;28;20210;-78
2021/08/25 03:39:44;;;;;;;4.47;3.33;;;9.60;99.90;;;;;;5010005;28;20178;-78
2021/08/25 03:42:10;;;;;;;3.33;2.97;;;9.60;99.90;;;;;;5011390;28;21232;-78
2021/08/25 03:44:37;;;;;;;3.27;2.97;;;9.60;99.90;;;;;;5010400;28;20467;-78
2021/08/25 03:47:07;;;;;;;3.33;2.70;;;9.60;99.90;;;;;;5011338;28;20182;-78
2021/08/25 03:49:34;;;;;;;3.30;3.00;;;9.60;99.90;;;;;;5010731;28;20444;-78
2021/08/25 03:52:00;;;;;;;4.00;3.10;;;9.70;99.90;;;;;;5009991;28;20453;-77
2021/08/25 03:54:27;;;;;;;4.00;3.60;;;9.80;99.90;;;;;;5009674;28;20490;-77
2021/08/25 03:56:54;;;;;;;3.40;3.10;;;9.80;99.90;;;;;;5014872;28;20468;-77
2021/08/25 03:59:19;;;;;;;3.77;2.90;;;9.90;99.90;;;;;;5012499;28;20532;-77
2021/08/25 04:01:45;;;;;;;4.83;3.77;;;9.90;99.90;;;;;;5012795;28;20516;-77
2021/08/25 04:04:11;;;;;;;3.53;3.20;;;10.00;99.90;;;;;;5013573;28;20608;-77
2021/08/25 04:06:37;;;;;;;3.73;3.33;;;10.00;99.90;;;;;;5013956;28;20942;-77
2021/08/25 04:09:05;;;;;;;6.80;4.00;;;10.00;99.90;;;;;;5013691;28;20254;-79
2021/08/25 04:11:33;;;;;;;4.63;4.13;;;10.10;99.90;;;;;;5012930;28;20487;-77
2021/08/25 04:14:00;;;;;;;13.50;6.60;;;10.10;99.90;;;;;;4968781;28;1279874;-78
2021/08/25 04:16:29;;;;;;;9.10;5.83;;;10.20;99.90;;;;;;5013838;28;20189;-77
2021/08/25 04:18:58;;;;;;;7.33;5.00;;;10.20;99.90;;;;;;5029273;28;20490;-77
2021/08/25 04:21:27;;;;;;;9.90;5.67;;;10.30;99.90;;;;;;5015046;28;20413;-78
2021/08/25 04:23:53;;;;;;;9.80;5.60;;;10.40;99.90;;;;;;5030694;28;20528;-78
2021/08/25 04:26:19;;;;;;;6.83;5.67;;;10.40;99.90;;;;;;5015249;28;20990;-78
2021/08/25 04:28:53;;;;;;;8.63;6.00;;;10.50;99.90;;;;;;5013031;28;20217;-78
2021/08/25 04:31:19;;;;;;;9.73;5.50;;;10.50;99.90;;;;;;5014442;28;20464;-78
2021/08/25 04:33:44;;;;;;;9.30;6.40;;;10.60;99.90;;;;;;5013137;28;20441;-78
2021/08/25 04:36:11;;;;;;;10.10;6.57;;;10.60;99.90;;;;;;5028429;28;20202;-78
2021/08/25 04:38:36;;;;;;;7.70;6.33;;;10.70;99.90;;;;;;5012582;28;20219;-78
2021/08/25 04:41:02;;;;;;;9.83;6.27;;;10.70;99.90;;;;;;5013716;28;20488;-78
2021/08/25 04:43:28;;;;;;;7.50;5.83;;;10.70;99.90;;;;;;5013495;28;20183;-78
2021/08/25 04:45:54;;;;;;;7.70;5.90;;;10.80;99.90;;;;;;5012905;28;20189;-78
2021/08/25 04:48:20;;;;;;;5.97;5.10;;;10.80;99.90;;;;;;5030433;28;20428;-78
2021/08/25 04:50:47;;;;;;;6.40;5.70;;;10.90;99.90;;;;;;5025338;28;20445;-77
2021/08/25 04:53:13;;;;;;;9.57;6.80;;;10.90;99.90;;;;;;5027690;28;20475;-77
2021/08/25 04:55:38;;;;;;;8.67;6.30;;;10.90;99.90;;;;;;5015172;28;20497;-77
2021/08/25 04:58:05;;;;;;;10.17;7.17;;;11.00;99.90;;;;;;5012480;28;20542;-77
2021/08/25 05:00:31;;;;;;;13.00;9.47;;;11.00;99.90;;;;;;5014015;28;20193;-77
2021/08/25 05:02:57;;;;;;;14.17;11.60;;;11.20;99.90;;;;;;5029958;28;20426;-78
2021/08/25 05:05:23;;;;;;;13.80;10.97;;;11.30;99.90;;;;;;5013529;28;20495;-77
2021/08/25 05:07:48;;;;;;;16.87;13.43;;;11.40;99.90;;;;;;5014316;28;20182;-77
2021/08/25 05:10:15;;;;;;;21.93;15.23;;;11.60;99.90;;;;;;5014361;28;20326;-77
2021/08/25 05:12:41;;;;;;;16.60;12.23;;;11.70;99.90;;;;;;5013394;28;20527;-77
2021/08/25 05:15:07;;;;;;;17.87;13.67;;;11.70;99.90;;;;;;5013834;28;20441;-77
2021/08/25 05:17:33;;;;;;;18.27;14.70;;;11.80;99.90;;;;;;5014453;28;20195;-77
2021/08/25 05:20:03;;;;;;;16.73;14.63;;;11.80;99.90;;;;;;5013175;28;20472;-77
2021/08/25 05:22:29;;;;;;;21.60;17.27;;;11.90;99.90;;;;;;5013689;28;20182;-77
2021/08/25 05:24:54;;;;;;;16.97;12.97;;;12.00;99.90;;;;;;5013993;28;20436;-77
2021/08/25 05:27:20;;;;;;;13.40;11.97;;;12.00;99.90;;;;;;5012331;28;20531;-77
2021/08/25 05:29:46;;;;;;;17.47;14.13;;;12.00;99.90;;;;;;5014023;28;20187;-77
2021/08/25 05:32:13;;;;;;;15.80;12.23;;;12.00;99.90;;;;;;5014744;28;20182;-77
2021/08/25 05:34:38;;;;;;;17.43;13.70;;;12.00;99.90;;;;;;5013076;28;20699;-77
2021/08/25 05:37:04;;;;;;;18.17;14.97;;;11.90;99.90;;;;;;5013580;28;20467;-77
2021/08/25 05:39:30;;;;;;;18.90;15.40;;;11.90;99.90;;;;;;5012301;28;20174;-77
2021/08/25 05:41:56;;;;;;;14.13;12.43;;;12.00;99.90;;;;;;5009655;28;20969;-77
2021/08/25 05:44:21;;;;;;;22.60;15.87;;;12.00;99.90;;;;;;5014519;28;20586;-77
2021/08/25 05:46:47;;;;;;;15.63;12.90;;;12.10;99.90;;;;;;5011949;28;20547;-77
2021/08/25 05:49:12;;;;;;;19.77;14.77;;;12.10;99.90;;;;;;5011893;28;20281;-77
2021/08/25 05:51:38;;;;;;;17.50;13.40;;;12.20;99.90;;;;;;5011143;28;20182;-78
2021/08/25 05:54:04;;;;;;;19.57;13.70;;;12.20;99.90;;;;;;5028360;28;20643;-78
2021/08/25 05:56:30;;;;;;;19.70;14.00;;;12.30;99.90;;;;;;5013134;28;20240;-78
2021/08/25 05:58:55;;;;;;;18.30;13.93;;;12.40;99.90;;;;;;5012802;28;20437;-77
2021/08/25 06:01:24;;;;;;;14.57;11.47;;;12.50;99.90;;;;;;5011967;28;20278;-77
2021/08/25 06:03:50;;;;;;;16.30;14.00;;;12.60;99.90;;;;;;5011193;28;20623;-77
2021/08/25 06:06:16;;;;;;;17.97;15.10;;;12.80;99.90;;;;;;5028119;28;20422;-77
2021/08/25 06:08:44;;;;;;;17.47;13.30;;;12.80;99.90;;;;;;5012796;28;20194;-77
2021/08/25 06:11:10;;;;;;;14.63;12.23;;;12.90;99.90;;;;;;5010454;28;20244;-77
2021/08/25 06:13:36;;;;;;;12.53;11.20;;;13.00;99.90;;;;;;5008694;28;20454;-77
2021/08/25 06:16:02;;;;;;;14.10;11.67;;;13.00;99.90;;;;;;5010211;28;20433;-77
2021/08/25 06:18:27;;;;;;;12.70;11.47;;;13.10;99.90;;;;;;5010481;28;20203;-77
2021/08/25 06:20:53;;;;;;;14.30;11.70;;;13.00;99.90;;;;;;5009652;28;20261;-77
2021/08/25 06:23:19;;;;;;;11.23;10.07;;;13.00;99.90;;;;;;5008010;28;20483;-77
2021/08/25 06:25:45;;;;;;;8.50;7.70;;;13.00;99.90;;;;;;5009051;28;20811;-77
2021/08/25 06:28:11;;;;;;;11.67;10.03;;;13.00;99.90;;;;;;5010409;28;20459;-77
2021/08/25 06:30:36;;;;;;;12.30;9.57;;;13.10;99.90;;;;;;5010810;28;20328;-77
2021/08/25 06:33:02;;;;;;;11.83;9.80;;;13.20;99.90;;;;;;5011289;28;20182;-77
2021/08/25 06:35:28;;;;;;;10.47;9.37;;;13.40;99.90;;;;;;5008960;28;20657;-77
2021/08/25 06:37:54;;;;;;;12.37;11.10;;;13.50;99.90;;;;;;5023623;28;20202;-77
2021/08/25 06:40:19;;;;;;;12.70;10.20;;;13.70;99.90;;;;;;5008192;28;20182;-77
2021/08/25 06:42:45;;;;;;;12.03;9.07;;;13.80;99.90;;;;;;5007377;28;20198;-77
2021/08/25 06:45:11;;;;;;;13.70;10.90;;;13.90;99.90;;;;;;5008660;28;20178;-77
2021/08/25 06:47:37;;;;;;;14.77;11.17;;;14.00;99.90;;;;;;5010522;28;20183;-77
2021/08/25 06:50:05;;;;;;;9.73;8.73;;;14.00;99.90;;;;;;5009438;28;20830;-77
2021/08/25 06:52:31;;;;;;;14.77;11.30;;;14.10;99.90;;;;;;5025073;28;20910;-77
2021/08/25 06:54:57;;;;;;;11.17;7.97;;;14.20;99.90;;;;;;5005116;28;20461;-77
2021/08/25 06:57:22;;;;;;;13.23;10.20;;;14.20;99.90;;;;;;5009512;28;20955;-77
2021/08/25 06:59:48;;;;;;;10.17;9.07;;;14.30;99.90;;;;;;5008969;28;20198;-77
2021/08/25 07:02:14;;;;;;;9.80;8.80;;;14.30;99.90;;;;;;5006534;28;20208;-77
2021/08/25 07:04:45;;;;;;;8.73;7.83;;;14.40;99.90;;;;;;5009436;28;20185;-77
2021/08/25 07:07:14;;;;;;;13.00;10.97;;;14.50;99.90;;;;;;5010282;28;20179;-77
2021/08/25 07:09:40;;;;;;;14.00;11.03;;;14.50;99.90;;;;;;5011447;28;20429;-77
2021/08/25 07:12:07;;;;;;;11.93;8.70;;;14.60;99.90;;;;;;5005060;28;20778;-77
2021/08/25 07:14:33;;;;;;;10.43;9.43;;;14.80;99.90;;;;;;5005461;28;20449;-77
2021/08/25 07:16:59;;;;;;;10.57;9.03;;;14.80;99.90;;;;;;5007385;28;20457;-77
2021/08/25 07:19:27;;;;;;;11.73;9.93;;;14.80;99.90;;;;;;5006509;28;20508;-77
2021/08/25 07:21:54;;;;;;;11.30;10.20;;;14.80;99.90;;;;;;4991102;28;20433;-77
2021/08/25 07:24:25;;;;;;;10.90;9.80;;;14.90;99.90;;;;;;5009447;28;20440;-77
2021/08/25 07:26:57;;;;;;;9.90;8.90;;;14.90;99.90;;;;;;5010089;28;20443;-77
2021/08/25 07:29:23;;;;;;;10.50;8.80;;;14.90;99.90;;;;;;5022591;28;20440;-77
2021/08/25 07:31:49;;;;;;;9.63;8.73;;;15.00;99.90;;;;;;5008290;28;20832;-77
2021/08/25 07:34:19;;;;;;;9.80;8.90;;;15.20;99.90;;;;;;5023721;28;20438;-77
2021/08/25 07:36:45;;;;;;;9.10;8.23;;;15.30;99.90;;;;;;5022704;28;20431;-77
2021/08/25 07:39:10;;;;;;;8.83;8.00;;;15.40;99.90;;;;;;5003631;28;20433;-78
2021/08/25 07:41:36;;;;;;;7.80;7.10;;;15.50;99.90;;;;;;5008065;28;20438;-82
2021/08/25 07:44:02;;;;;;;9.10;8.30;;;15.50;99.90;;;;;;5007554;28;20237;-83
2021/08/25 07:46:36;;;;;;;8.97;7.20;;;15.60;99.90;;;;;;5010260;28;20221;-86
2021/08/25 07:49:03;;;;;;;11.03;9.33;;;15.60;99.90;;;;;;5011207;28;20544;-84
2021/08/25 07:51:29;;;;;;;13.70;9.67;;;15.70;99.90;;;;;;5025484;28;20436;-85
2021/08/25 07:53:56;;;;;;;10.50;8.70;;;15.60;99.90;;;;;;5009507;28;20448;-85
2021/08/25 07:56:28;;;;;;;9.40;8.40;;;15.60;99.90;;;;;;5009820;28;20759;-82
2021/08/25 07:58:59;;;;;;;8.23;7.30;;;15.60;99.90;;;;;;5024825;28;20479;-82
2021/08/25 08:01:29;;;;;;;11.27;7.60;;;15.60;99.90;;;;;;5007182;28;20910;-82
2021/08/25 08:03:55;;;;;;;8.47;7.70;;;15.70;99.90;;;;;;5008743;28;20425;-81
2021/08/25 08:06:24;;;;;;;10.47;8.17;;;15.70;99.90;;;;;;5027478;28;20441;-83
2021/08/25 08:08:50;;;;;;;11.43;8.97;;;15.90;99.90;;;;;;5013858;28;20193;-84
2021/08/25 08:11:17;;;;;;;8.10;7.40;;;16.20;99.90;;;;;;5013828;28;20425;-84
2021/08/25 08:13:44;;;;;;;7.13;5.53;;;16.30;99.90;;;;;;5011638;28;20422;-85
2021/08/25 08:16:17;;;;;;;8.13;6.27;;;16.40;99.90;;;;;;5013375;28;20448;-87
2021/08/25 08:19:16;;;;;;;6.73;6.13;;;16.40;99.90;;;;;;5024920;28;20572;-86
2021/08/25 08:21:30;;;;;;;5.37;4.57;;;16.50;99.90;;;;;;5010145;28;20421;-86
2021/08/25 08:24:13;;;;;;;5.80;5.30;;;16.70;99.90;;;;;;5009644;28;20438;-86
2021/08/25 08:26:39;;;;;;;10.00;5.10;;;16.80;99.90;;;;;;5015069;28;20421;-83
2021/08/25 08:29:05;;;;;;;5.80;4.63;;;17.00;99.90;;;;;;5010894;28;20438;-85
2021/08/25 08:31:34;;;;;;;6.30;3.90;;;17.10;99.90;;;;;;5008538;28;20436;-87
2021/08/25 08:33:59;;;;;;;4.43;4.13;;;17.10;99.90;;;;;;5009808;28;20182;-85
2021/08/25 08:36:26;;;;;;;5.80;3.40;;;17.30;99.90;;;;;;5009722;28;20759;-87
2021/08/25 08:38:54;;;;;;;2.97;2.60;;;17.40;99.90;;;;;;5010771;28;20300;-89
2021/08/25 08:41:20;;;;;;;5.33;2.70;;;17.50;99.90;;;;;;5012347;28;20422;-86
2021/08/25 08:43:48;;;;;;;3.10;2.07;;;17.60;99.90;;;;;;5020468;28;20433;-84
2021/08/25 08:46:15;;;;;;;2.27;2.07;;;17.60;99.90;;;;;;5015351;28;20194;-87
2021/08/25 08:48:43;;;;;;;6.33;2.30;;;17.60;99.90;;;;;;5029591;28;20421;-89
2021/08/25 08:51:15;;;;;;;2.00;1.60;;;17.70;99.90;;;;;;5037118;28;20433;-88
2021/08/25 08:53:41;;;;;;;1.90;1.80;;;17.70;99.90;;;;;;5015058;28;20500;-87
2021/08/25 08:56:07;;;;;;;2.60;1.73;;;17.80;99.90;;;;;;5015157;28;20460;-87
2021/08/25 08:58:32;;;;;;;1.87;1.63;;;18.00;99.90;;;;;;5018735;28;20280;-86
2021/08/25 09:00:58;;;;;;;1.67;1.57;;;18.20;99.90;;;;;;5014510;28;20431;-87
2021/08/25 09:03:26;;;;;;;1.83;1.70;;;18.30;99.90;;;;;;5013189;28;20198;-88
2021/08/25 09:05:57;;;;;;;2.00;1.90;;;18.30;99.90;;;;;;5014339;28;20890;-89
2021/08/25 09:08:26;;;;;;;2.27;1.90;;;18.30;99.90;;;;;;5014526;28;20425;-87
2021/08/25 09:11:16;;;;;;;1.60;1.50;;;18.30;99.90;;;;;;5013724;28;20504;-87
2021/08/25 09:13:48;;;;;;;3.30;2.10;;;18.30;99.90;;;;;;5018025;28;20428;-88
2021/08/25 09:16:32;;;;;;;2.43;1.70;;;18.40;99.90;;;;;;5015295;28;20433;-87
2021/08/25 09:19:02;;;;;;;5.53;2.30;;;18.60;99.90;;;;;;5012006;28;20453;-89
2021/08/25 09:21:39;;;;;;;1.77;1.67;;;18.80;99.90;;;;;;5010950;28;20433;-88
2021/08/25 09:24:07;;;;;;;2.53;2.17;;;18.80;99.90;;;;;;5012482;28;20425;-87
2021/08/25 09:26:34;;;;;;;2.40;2.20;;;18.90;99.90;;;;;;5015516;28;20429;-89
2021/08/25 09:29:16;;;;;;;2.50;1.93;;;18.90;99.90;;;;;;5033507;28;20429;-87
2021/08/25 09:31:44;;;;;;;2.13;1.80;;;19.00;99.90;;;;;;5012782;28;20941;-87
2021/08/25 09:34:33;;;;;;;3.77;2.00;;;18.90;99.90;;;;;;5010740;28;20429;-89
2021/08/25 09:37:10;;;;;;;2.00;1.90;;;18.90;99.90;;;;;;5027954;28;20470;-87
2021/08/25 09:39:51;;;;;;;1.90;1.80;;;18.90;99.90;;;;;;5015208;28;20420;-90
2021/08/25 09:42:19;;;;;;;5.33;2.33;;;18.80;99.90;;;;;;5012760;28;20513;-87
2021/08/25 09:44:46;;;;;;;3.10;2.00;;;18.70;99.90;;;;;;5015699;28;20827;-91
2021/08/25 09:47:12;;;;;;;1.77;1.53;;;18.70;99.90;;;;;;5013679;28;20430;-89
2021/08/25 09:49:38;;;;;;;3.20;1.70;;;18.90;99.90;;;;;;5009165;28;20436;-90
2021/08/25 09:52:05;;;;;;;1.57;1.43;;;19.10;99.90;;;;;;5010196;28;20437;-88
2021/08/25 09:54:31;;;;;;;1.63;1.50;;;19.20;99.90;;;;;;5011071;28;20305;-89
2021/08/25 09:56:57;;;;;;;2.13;1.50;;;19.10;99.90;;;;;;5008927;28;20457;-90
2021/08/25 09:59:23;;;;;;;1.50;1.40;;;19.00;99.90;;;;;;5031288;28;20631;-87
2021/08/25 10:01:51;;;;;;;1.57;1.17;;;18.80;99.90;;;;;;5009281;28;20182;-88
2021/08/25 10:04:16;;;;;;;1.27;1.17;;;18.80;99.90;;;;;;5012999;28;20421;-83
2021/08/25 10:06:45;;;;;;;1.77;1.43;;;18.90;99.90;;;;;;5025835;28;20440;-84
2021/08/25 10:09:16;;;;;;;1.70;1.07;;;19.30;99.90;;;;;;5011111;28;20882;-86
2021/08/25 10:11:52;;;;;;;1.30;1.20;;;19.50;99.90;;;;;;5028634;28;20895;-84
2021/08/25 10:14:31;;;;;;;1.83;1.10;;;19.60;99.90;;;;;;5017527;28;20437;-87
2021/08/25 10:16:57;;;;;;;1.20;1.10;;;19.60;99.90;;;;;;5001897;28;20543;-89
2021/08/25 10:19:29;;;;;;;1.00;1.00;;;19.50;99.90;;;;;;5021667;28;20449;-89
2021/08/25 10:21:57;;;;;;;1.13;1.03;;;19.30;99.90;;;;;;5038967;28;20436;-87
2021/08/25 10:24:23;;;;;;;1.57;1.00;;;19.30;99.90;;;;;;5026711;28;20413;-86
2021/08/25 10:26:57;;;;;;;1.03;0.90;;;19.50;99.90;;;;;;5012850;28;20759;-84
2021/08/25 10:29:24;;;;;;;1.37;0.83;;;19.60;99.90;;;;;;5011143;28;20178;-85
2021/08/25 10:31:51;;;;;;;1.23;0.90;;;19.60;99.90;;;;;;5010873;28;20756;-84
2021/08/25 10:34:20;;;;;;;1.00;1.00;;;19.70;99.90;;;;;;5010398;28;20984;-81
2021/08/25 10:36:46;;;;;;;1.10;0.97;;;19.80;99.90;;;;;;5015501;28;20424;-82
2021/08/25 10:39:31;;;;;;;0.93;0.93;;;20.10;99.90;;;;;;5015047;28;20425;-82
2021/08/25 10:41:58;;;;;;;2.30;1.00;;;20.30;99.90;;;;;;5022146;28;20495;-83
2021/08/25 10:44:38;;;;;;;1.00;1.00;;;20.10;99.90;;;;;;5023922;28;20505;-84
2021/08/25 10:47:09;;;;;;;0.60;0.60;;;19.90;99.90;;;;;;5025095;28;20513;-85
2021/08/25 10:49:37;;;;;;;5.43;1.00;;;19.90;99.90;;;;;;5021578;28;20418;-82
2021/08/25 10:52:15;;;;;;;3.17;0.80;;;19.80;99.90;;;;;;5022934;28;20434;-82
2021/08/25 10:54:46;;;;;;;0.93;0.77;;;20.10;99.90;;;;;;5027553;28;20434;-80
2021/08/25 10:57:15;;;;;;;1.60;0.87;;;20.20;99.90;;;;;;5010682;28;20475;-90
2021/08/25 10:59:41;;;;;;;1.80;0.90;;;20.00;99.90;;;;;;5013508;28;20469;-88
2021/08/25 11:02:07;;;;;;;2.53;0.90;;;19.80;99.90;;;;;;5019521;28;20433;-87
2021/08/25 11:04:33;;;;;;;1.73;1.00;;;19.60;99.90;;;;;;5007040;28;20174;-87
2021/08/25 11:07:18;;;;;;;3.00;0.90;;;19.50;99.90;;;;;;5028905;28;20511;-88
2021/08/25 11:09:45;;;;;;;0.80;0.80;;;19.60;99.90;;;;;;5011813;28;20421;-86
2021/08/25 11:12:20;;;;;;;0.70;0.70;;;19.40;99.90;;;;;;5011387;28;20438;-86
2021/08/25 11:14:49;;;;;;;1.20;1.00;;;19.40;99.90;;;;;;5012531;28;20456;-85
2021/08/25 11:17:19;;;;;;;0.80;0.80;;;19.20;99.90;;;;;;5011866;28;20457;-85
2021/08/25 11:19:49;;;;;;;1.00;0.70;;;19.20;99.90;;;;;;5008655;28;20433;-85
2021/08/25 11:22:49;;;;;;;1.77;0.70;;;19.00;99.90;;;;;;5010694;28;20421;-85
2021/08/25 11:25:18;;;;;;;2.07;0.90;;;18.90;99.90;;;;;;5008514;28;20457;-86
2021/08/25 11:27:48;;;;;;;1.50;1.40;;;18.70;99.90;;;;;;5011421;28;20505;-86
2021/08/25 11:30:18;;;;;;;1.00;1.00;;;18.70;99.90;;;;;;5008993;28;20936;-86
2021/08/25 11:32:51;;;;;;;0.70;0.70;;;18.90;99.90;;;;;;5008914;28;20448;-85
2021/08/25 11:35:44;;;;;;;2.10;0.80;;;18.80;99.90;;;;;;5010408;28;20449;-86
2021/08/25 11:38:18;;;;;;;3.23;1.07;;;18.80;99.90;;;;;;5022795;28;20449;-82
2021/08/25 11:40:47;;;;;;;2.20;1.23;;;18.70;99.90;;;;;;5017550;28;20441;-82
2021/08/25 11:43:20;;;;;;;1.57;1.10;;;18.80;99.90;;;;;;5042049;22;21007;-75
2021/08/25 11:45:51;;;;;;;1.00;0.90;;;18.60;99.90;;;;;;5027499;28;20424;-75
2021/08/25 11:48:17;;;;;;;1.30;1.23;;;18.50;99.90;;;;;;5027819;28;20481;-75
2021/08/25 11:50:48;;;;;;;1.10;1.00;;;18.40;99.90;;;;;;5027785;28;20771;-75
2021/08/25 11:53:18;;;;;;;1.10;1.00;;;18.40;99.90;;;;;;5020249;28;20199;-73
2021/08/25 11:55:46;;;;;;;1.77;1.23;;;18.30;99.90;;;;;;5025115;28;20438;-75
2021/08/25 11:58:24;;;;;;;0.90;0.90;;;18.40;99.90;;;;;;5021414;28;20823;-73
2021/08/25 12:00:51;;;;;;;1.30;1.20;;;18.40;99.90;;;;;;5022130;28;21035;-73
2021/08/25 12:03:17;;;;;;;1.30;1.20;;;18.40;99.90;;;;;;5026383;28;20464;-74
2021/08/25 12:05:53;;;;;;;2.10;1.37;;;18.40;99.90;;;;;;5026124;28;20467;-74
2021/08/25 12:08:19;;;;;;;1.07;0.90;;;18.40;99.90;;;;;;5022098;28;20193;-73
2021/08/25 12:11:03;;;;;;;1.30;1.20;;;18.20;99.90;;;;;;5023400;28;20441;-73
2021/08/25 12:13:32;;;;;;;1.30;1.10;;;18.00;99.90;;;;;;5020902;28;22929;-73
2021/08/25 12:15:59;;;;;;;2.40;1.00;;;17.90;99.90;;;;;;5027705;28;20440;-75
2021/08/25 12:18:26;;;;;;;2.00;1.30;;;17.90;99.90;;;;;;5031055;28;20467;-73
2021/08/25 12:20:56;;;;;;;1.13;1.03;;;17.90;99.90;;;;;;5022982;28;20437;-75
2021/08/25 12:23:27;;;;;;;1.47;1.20;;;18.00;99.90;;;;;;5025230;28;20428;-78
2021/08/25 12:25:57;;;;;;;2.00;1.17;;;18.10;99.90;;;;;;5030479;28;20511;-77
2021/08/25 12:28:33;;;;;;;1.27;1.20;;;18.20;99.90;;;;;;5028129;28;20435;-76
2021/08/25 12:31:18;;;;;;;2.40;1.33;;;18.30;99.90;;;;;;5026700;28;20465;-76
2021/08/25 12:33:51;;;;;;;3.63;1.30;;;18.50;99.90;;;;;;5027370;28;20455;-76
2021/08/25 12:36:23;;;;;;;1.20;1.10;;;18.70;99.90;;;;;;5030251;28;20495;-76
2021/08/25 12:38:50;;;;;;;0.93;0.93;;;18.90;99.90;;;;;;5022771;28;20844;-76
2021/08/25 12:41:18;;;;;;;7.33;1.30;;;19.00;99.90;;;;;;5027912;28;20473;-76
2021/08/25 12:43:44;;;;;;;1.27;1.27;;;19.10;99.90;;;;;;5029852;28;20451;-77
2021/08/25 12:46:09;;;;;;;1.10;1.00;;;19.10;99.90;;;;;;5024394;28;20437;-76
2021/08/25 12:48:35;;;;;;;1.17;0.90;;;19.20;99.90;;;;;;5026070;28;20905;-76
2021/08/25 12:51:01;;;;;;;0.83;0.83;;;19.30;99.90;;;;;;5024838;28;20248;-76